Time;durP1;ratioP1;P1;durP2;ratioP2;P2;SDS_P1;SDS_P2;PMS_P1;PMS_P2;Temp;Humidity;BMP_temperature;BMP_pressure;BME280_temperature;BME280_humidity;BME280_pressure;Samples;Min_cycle;Max_cycle;Signal;HPM_P1;HPM_P2
2023/10/25 00:01:23;;;;;;;;;;;;;;;7.72;100.00;99560.75;4991092;28;19929;-88
2023/10/25 00:03:51;;;;;;;;;;;;;;;7.56;100.00;99562.00;4991378;28;19925;-87
2023/10/25 00:06:24;;;;;;;;;;;;;;;7.60;100.00;99566.53;4994437;28;19937;-87
2023/10/25 00:08:52;;;;;;;;;;;;;;;7.64;100.00;99559.47;4986537;28;19928;-88
2023/10/25 00:11:26;;;;;;;;;;;;;;;7.60;100.00;99552.22;4987928;28;19933;-87
2023/10/25 00:13:59;;;;;;;;;;;;;;;7.58;100.00;99559.78;4987907;28;19921;-87
2023/10/25 00:16:32;;;;;;;;;;;;;;;7.53;100.00;99559.88;4978157;28;19930;-88
2023/10/25 00:19:06;;;;;;;;;;;;;;;7.52;100.00;99559.03;4993412;28;19929;-87
2023/10/25 00:21:34;;;;;;;;;;;;;;;7.52;100.00;99566.38;4980704;28;20464;-87
2023/10/25 00:24:02;;;;;;;;;;;;;;;7.48;100.00;99571.53;5000884;28;19921;-87
2023/10/25 00:26:31;;;;;;;;;;;;;;;7.47;100.00;99575.34;4995691;28;20483;-89
2023/10/25 00:29:00;;;;;;;;;;;;;;;7.35;100.00;99574.91;4996285;28;19933;-86
2023/10/25 00:31:28;;;;;;;;;;;;;;;7.33;100.00;99572.50;4973243;28;19922;-88
2023/10/25 00:33:57;;;;;;;;;;;;;;;7.37;100.00;99578.16;4986139;28;19947;-87
2023/10/25 00:36:25;;;;;;;;;;;;;;;7.42;100.00;99578.13;4993580;28;19926;-87
2023/10/25 00:38:52;;;;;;;;;;;;;;;7.50;100.00;99582.91;4990955;28;19929;-87
2023/10/25 00:41:20;;;;;;;;;;;;;;;7.46;100.00;99574.53;4995596;28;19921;-87
2023/10/25 00:43:51;;;;;;;;;;;;;;;7.49;100.00;99582.06;4998641;28;19922;-87
2023/10/25 00:46:21;;;;;;;;;;;;;;;7.44;100.00;99581.31;4995777;28;20633;-88
2023/10/25 00:48:49;;;;;;;;;;;;;;;7.41;100.00;99582.69;4993195;28;20294;-87
2023/10/25 00:51:18;;;;;;;;;;;;;;;7.36;100.00;99581.94;4993508;28;19929;-86
2023/10/25 00:53:47;;;;;;;;;;;;;;;7.32;100.00;99587.13;4992993;28;19922;-86
2023/10/25 00:56:16;;;;;;;;;;;;;;;7.30;100.00;99587.41;4994217;28;20302;-87
2023/10/25 00:58:45;;;;;;;;;;;;;;;7.32;100.00;99579.81;4998778;28;19921;-87
2023/10/25 01:01:15;;;;;;;;;;;;;;;7.24;100.00;99587.75;4994206;28;19922;-87
2023/10/25 01:03:43;;;;;;;;;;;;;;;7.27;100.00;99577.16;4973861;28;19929;-86
2023/10/25 01:06:11;;;;;;;;;;;;;;;7.23;100.00;99584.22;4993137;28;20507;-86
2023/10/25 01:08:40;;;;;;;;;;;;;;;7.18;100.00;99587.00;4995175;28;19944;-86
2023/10/25 01:11:13;;;;;;;;;;;;;;;7.20;100.00;99581.28;4994435;28;19922;-86
2023/10/25 01:13:41;;;;;;;;;;;;;;;7.09;100.00;99578.66;5002170;28;19940;-87
2023/10/25 01:16:09;;;;;;;;;;;;;;;7.17;100.00;99584.53;4994935;28;19929;-86
2023/10/25 01:18:43;;;;;;;;;;;;;;;7.06;100.00;99578.44;4994230;28;19922;-86
2023/10/25 01:21:16;;;;;;;;;;;;;;;7.08;100.00;99581.66;4992799;28;19933;-87
2023/10/25 01:23:52;;;;;;;;;;;;;;;6.96;100.00;99590.94;4986767;28;19928;-86
2023/10/25 01:26:20;;;;;;;;;;;;;;;7.00;100.00;99582.25;4982362;28;19929;-86
2023/10/25 01:28:48;;;;;;;;;;;;;;;6.89;100.00;99581.53;4995954;28;20904;-86
2023/10/25 01:31:21;;;;;;;;;;;;;;;6.92;100.00;99581.78;4992867;28;19922;-85
2023/10/25 01:33:51;;;;;;;;;;;;;;;6.97;100.00;99575.50;4987373;28;19922;-84
2023/10/25 01:36:19;;;;;;;;;;;;;;;7.01;100.00;99565.75;4991130;28;20378;-85
2023/10/25 01:38:53;;;;;;;;;;;;;;;7.00;100.00;99566.81;4983500;28;20308;-85
2023/10/25 01:41:21;;;;;;;;;;;;;;;6.99;100.00;99567.94;4985288;28;19921;-84
2023/10/25 01:43:49;;;;;;;;;;;;;;;6.97;100.00;99562.81;4971637;28;19921;-85
2023/10/25 01:46:17;;;;;;;;;;;;;;;6.88;100.00;99561.81;4988261;28;19929;-85
2023/10/25 01:48:50;;;;;;;;;;;;;;;6.83;100.00;99572.66;4997576;28;19945;-85
2023/10/25 01:51:24;;;;;;;;;;;;;;;6.80;100.00;99560.50;4992651;28;19922;-85
2023/10/25 01:53:53;;;;;;;;;;;;;;;6.77;100.00;99569.19;4986634;28;19933;-85
2023/10/25 01:56:26;;;;;;;;;;;;;;;6.79;100.00;99569.72;4990997;28;20547;-86
2023/10/25 01:58:54;;;;;;;;;;;;;;;6.79;100.00;99566.19;4991843;28;19933;-85
2023/10/25 02:01:27;;;;;;;;;;;;;;;6.86;100.00;99561.25;4996784;28;19928;-86
2023/10/25 02:03:56;;;;;;;;;;;;;;;6.80;100.00;99570.50;4987881;28;19933;-84
2023/10/25 02:06:28;;;;;;;;;;;;;;;6.83;100.00;99571.84;4987198;28;20384;-85
2023/10/25 02:08:58;;;;;;;;;;;;;;;6.90;100.00;99561.50;4996754;28;19922;-85
2023/10/25 02:11:31;;;;;;;;;;;;;;;6.93;100.00;99571.75;4973924;28;19921;-87
2023/10/25 02:13:59;;;;;;;;;;;;;;;6.87;100.00;99562.88;4988194;28;20286;-85
2023/10/25 02:16:32;;;;;;;;;;;;;;;6.88;100.00;99559.09;4991738;28;19929;-87
2023/10/25 02:19:05;;;;;;;;;;;;;;;6.89;100.00;99571.53;4982585;28;19926;-85
2023/10/25 02:21:35;;;;;;;;;;;;;;;6.90;100.00;99567.72;4995624;28;19922;-85
2023/10/25 02:24:06;;;;;;;;;;;;;;;6.91;100.00;99569.34;4989491;28;20476;-86
2023/10/25 02:26:35;;;;;;;;;;;;;;;6.86;100.00;99561.25;4997328;28;19945;-85
2023/10/25 02:29:03;;;;;;;;;;;;;;;6.89;100.00;99559.91;4995878;28;19921;-84
2023/10/25 02:31:33;;;;;;;;;;;;;;;6.84;100.00;99560.75;4991185;28;20398;-85
2023/10/25 02:34:06;;;;;;;;;;;;;;;6.86;100.00;99571.28;4992314;28;19928;-85
2023/10/25 02:36:35;;;;;;;;;;;;;;;6.86;100.00;99569.38;4991178;28;19922;-85
2023/10/25 02:39:09;;;;;;;;;;;;;;;6.79;100.00;99568.91;4989981;28;20289;-84
2023/10/25 02:41:42;;;;;;;;;;;;;;;6.84;100.00;99560.75;4989970;28;19929;-85
2023/10/25 02:44:10;;;;;;;;;;;;;;;6.89;100.00;99558.00;4992531;28;20290;-85
2023/10/25 02:46:43;;;;;;;;;;;;;;;6.89;100.00;99566.13;4991131;28;20286;-85
2023/10/25 02:49:10;;;;;;;;;;;;;;;6.87;100.00;99556.69;4976001;28;19941;-86
2023/10/25 02:51:38;;;;;;;;;;;;;;;6.84;100.00;99562.66;4991211;28;19929;-85
2023/10/25 02:54:06;;;;;;;;;;;;;;;6.75;100.00;99568.66;4991058;28;19933;-84
2023/10/25 02:56:36;;;;;;;;;;;;;;;6.75;100.00;99571.38;4991215;28;19921;-85
2023/10/25 02:59:09;;;;;;;;;;;;;;;6.74;100.00;99569.75;4993976;28;19922;-84
2023/10/25 03:01:37;;;;;;;;;;;;;;;6.74;100.00;99566.22;4989586;28;19929;-84
2023/10/25 03:04:05;;;;;;;;;;;;;;;6.69;100.00;99563.56;4991183;28;19921;-84
2023/10/25 03:06:38;;;;;;;;;;;;;;;6.62;100.00;99559.28;4966917;28;19932;-85
2023/10/25 03:09:11;;;;;;;;;;;;;;;6.61;100.00;99564.97;4989004;28;19922;-85
2023/10/25 03:11:40;;;;;;;;;;;;;;;6.67;100.00;99565.72;4985511;28;19928;-84
2023/10/25 03:14:08;;;;;;;;;;;;;;;6.66;100.00;99567.66;4991723;28;19933;-85
2023/10/25 03:16:36;;;;;;;;;;;;;;;6.64;100.00;99565.22;4990991;28;19959;-85
2023/10/25 03:19:05;;;;;;;;;;;;;;;6.67;100.00;99565.72;5001788;28;19921;-85
2023/10/25 03:21:38;;;;;;;;;;;;;;;6.60;100.00;99564.16;4991042;28;19936;-85
2023/10/25 03:24:06;;;;;;;;;;;;;;;6.66;100.00;99562.25;4991881;28;20527;-84
2023/10/25 03:26:41;;;;;;;;;;;;;;;6.69;100.00;99564.38;4995466;28;19929;-84
2023/10/25 03:29:14;;;;;;;;;;;;;;;6.69;100.00;99567.06;4993509;28;19922;-84
2023/10/25 03:31:42;;;;;;;;;;;;;;;6.66;100.00;99559.53;4989919;28;19922;-85
2023/10/25 03:34:18;;;;;;;;;;;;;;;6.63;100.00;99563.59;4998775;28;19929;-85
2023/10/25 03:36:51;;;;;;;;;;;;;;;6.68;100.00;99564.66;4989731;28;19926;-86
2023/10/25 03:39:19;;;;;;;;;;;;;;;6.74;100.00;99558.94;5004392;28;19929;-85
2023/10/25 03:41:54;;;;;;;;;;;;;;;6.74;100.00;99564.34;4986452;28;19937;-84
2023/10/25 03:44:22;;;;;;;;;;;;;;;6.81;100.00;99562.13;4995568;28;19929;-86
2023/10/25 03:46:55;;;;;;;;;;;;;;;6.83;100.00;99559.13;4993810;28;20874;-84
2023/10/25 03:49:28;;;;;;;;;;;;;;;6.80;100.00;99565.09;5002817;28;20180;-86
2023/10/25 03:52:02;;;;;;;;;;;;;;;6.80;100.00;99554.28;4994503;28;19921;-84
2023/10/25 03:54:31;;;;;;;;;;;;;;;6.80;100.00;99554.28;4979224;28;19921;-85
2023/10/25 03:57:00;;;;;;;;;;;;;;;6.81;100.00;99554.00;4992651;28;19929;-84
2023/10/25 03:59:28;;;;;;;;;;;;;;;6.79;100.00;99560.78;4992293;28;19929;-84
2023/10/25 04:01:56;;;;;;;;;;;;;;;6.80;100.00;99554.28;4974543;28;19922;-85
2023/10/25 04:04:29;;;;;;;;;;;;;;;6.83;100.00;99558.34;4994290;28;19945;-84
2023/10/25 04:06:57;;;;;;;;;;;;;;;6.82;100.00;99549.38;4978581;28;19922;-85
2023/10/25 04:09:25;;;;;;;;;;;;;;;6.81;100.00;99554.00;4990754;28;19922;-85
2023/10/25 04:11:53;;;;;;;;;;;;;;;6.77;100.00;99544.84;4992896;28;19929;-85
2023/10/25 04:14:22;;;;;;;;;;;;;;;6.76;100.00;99548.63;4983635;28;19932;-84
2023/10/25 04:16:55;;;;;;;;;;;;;;;6.78;100.00;99546.47;4973306;28;19922;-85
2023/10/25 04:19:23;;;;;;;;;;;;;;;6.78;100.00;99549.16;4991857;28;19932;-85
2023/10/25 04:21:56;;;;;;;;;;;;;;;6.78;100.00;99546.47;4987966;28;19929;-85
2023/10/25 04:24:29;;;;;;;;;;;;;;;6.71;100.00;99550.56;4993030;28;19925;-84
2023/10/25 04:26:57;;;;;;;;;;;;;;;6.72;100.00;99547.56;4979793;28;19921;-84
2023/10/25 04:29:27;;;;;;;;;;;;;;;6.73;100.00;99549.19;4991551;28;19929;-84
2023/10/25 04:31:55;;;;;;;;;;;;;;;6.63;100.00;99550.09;4985869;28;20413;-85
2023/10/25 04:34:27;;;;;;;;;;;;;;;6.64;100.00;99549.00;4994731;28;20367;-85
2023/10/25 04:36:56;;;;;;;;;;;;;;;6.60;100.00;99550.66;4992991;28;19922;-84
2023/10/25 04:39:24;;;;;;;;;;;;;;;6.63;100.00;99552.78;4995538;28;20370;-83
2023/10/25 04:41:56;;;;;;;;;;;;;;;6.54;100.00;99546.34;4977699;28;19936;-84
2023/10/25 04:44:31;;;;;;;;;;;;;;;6.49;100.00;99537.47;4990653;28;19933;-84
2023/10/25 04:46:59;;;;;;;;;;;;;;;6.35;100.00;99546.19;4997197;28;19921;-84
2023/10/25 04:49:29;;;;;;;;;;;;;;;6.44;100.00;99533.72;4996055;28;19926;-85
2023/10/25 04:51:56;;;;;;;;;;;;;;;6.44;100.00;99532.91;4992029;28;19929;-85
2023/10/25 04:54:29;;;;;;;;;;;;;;;6.40;100.00;99540.78;4992850;28;20406;-84
2023/10/25 04:57:02;;;;;;;;;;;;;;;6.39;100.00;99538.34;4992465;28;19945;-84
2023/10/25 04:59:37;;;;;;;;;;;;;;;6.30;100.00;99532.75;4990232;28;20534;-84
2023/10/25 05:02:04;;;;;;;;;;;;;;;6.34;100.00;99531.09;4971998;28;20337;-84
2023/10/25 05:04:37;;;;;;;;;;;;;;;6.28;100.00;99529.50;4994429;28;19929;-84
2023/10/25 05:07:05;;;;;;;;;;;;;;;6.20;100.00;99536.31;4998896;28;19921;-84
2023/10/25 05:09:38;;;;;;;;;;;;;;;6.16;100.00;99526.31;4973833;28;19922;-86
2023/10/25 05:12:06;;;;;;;;;;;;;;;6.06;100.00;99541.50;4990816;28;20415;-83
2023/10/25 05:14:41;;;;;;;;;;;;;;;6.15;100.00;99533.63;4990942;28;19925;-84
2023/10/25 05:17:10;;;;;;;;;;;;;;;6.15;100.00;99533.63;4980985;28;19926;-84
2023/10/25 05:19:38;;;;;;;;;;;;;;;6.05;100.00;99530.97;4997377;28;20278;-85
2023/10/25 05:22:09;;;;;;;;;;;;;;;6.05;100.00;99526.38;4990068;28;19922;-84
2023/10/25 05:24:42;;;;;;;;;;;;;;;6.05;100.00;99523.69;4987712;28;19922;-85
2023/10/25 05:27:15;;;;;;;;;;;;;;;6.06;100.00;99536.13;4975678;28;19922;-85
2023/10/25 05:29:45;;;;;;;;;;;;;;;6.01;100.00;99535.31;4991787;28;19928;-84
2023/10/25 05:32:14;;;;;;;;;;;;;;;6.05;100.00;99539.06;4993900;28;19922;-85
2023/10/25 05:34:43;;;;;;;;;;;;;;;6.01;100.00;99540.69;5001845;28;19925;-84
2023/10/25 05:37:16;;;;;;;;;;;;;;;6.05;100.00;99545.28;4999217;28;19922;-85
2023/10/25 05:39:49;;;;;;;;;;;;;;;6.03;100.00;99543.94;4996632;28;19928;-85
2023/10/25 05:42:23;;;;;;;;;;;;;;;5.99;100.00;99546.38;4992552;28;19925;-85
2023/10/25 05:44:58;;;;;;;;;;;;;;;5.93;100.00;99545.56;4991497;28;19922;-85
2023/10/25 05:47:26;;;;;;;;;;;;;;;5.88;100.00;99551.03;4995148;28;19921;-86
2023/10/25 05:49:54;;;;;;;;;;;;;;;5.92;100.00;99552.09;4984413;28;19922;-85
2023/10/25 05:52:22;;;;;;;;;;;;;;;5.84;100.00;99555.34;4969710;28;19926;-85
2023/10/25 05:54:56;;;;;;;;;;;;;;;5.82;100.00;99554.81;4968035;28;19932;-85
2023/10/25 05:57:24;;;;;;;;;;;;;;;5.72;100.00;99549.47;4998395;28;19927;-86
2023/10/25 05:59:52;;;;;;;;;;;;;;;5.65;100.00;99551.63;4990918;28;19926;-85
2023/10/25 06:02:28;;;;;;;;;;;;;;;5.53;100.00;99554.63;4993529;28;19921;-86
2023/10/25 06:04:56;;;;;;;;;;;;;;;5.43;100.00;99550.06;4985592;28;19929;-84
2023/10/25 06:07:25;;;;;;;;;;;;;;;5.41;100.00;99552.22;4998597;28;19922;-85
2023/10/25 06:09:53;;;;;;;;;;;;;;;5.43;100.00;99550.88;4992519;28;20271;-86
2023/10/25 06:12:22;;;;;;;;;;;;;;;5.37;100.00;99553.84;4994994;28;20305;-85
2023/10/25 06:14:55;;;;;;;;;;;;;;;5.35;100.00;99542.53;4981322;28;19929;-86
2023/10/25 06:17:24;;;;;;;;;;;;;;;5.30;100.00;99556.81;4990991;28;19922;-86
2023/10/25 06:19:53;;;;;;;;;;;;;;;5.31;100.00;99553.06;4997200;28;20613;-87
2023/10/25 06:22:21;;;;;;;;;;;;;;;5.16;100.00;99561.97;4991727;28;19929;-86
2023/10/25 06:24:49;;;;;;;;;;;;;;;5.27;100.00;99570.84;4994033;28;19925;-86
2023/10/25 06:27:17;;;;;;;;;;;;;;;5.30;100.00;99554.13;4992008;28;19925;-87
2023/10/25 06:29:45;;;;;;;;;;;;;;;5.35;100.00;99564.13;4990217;28;20298;-86
2023/10/25 06:32:18;;;;;;;;;;;;;;;5.22;100.00;99560.06;4990107;28;19922;-86
2023/10/25 06:34:46;;;;;;;;;;;;;;;5.28;100.00;99561.69;4996610;28;19922;-86
2023/10/25 06:37:16;;;;;;;;;;;;;;;5.31;100.00;99560.34;4991704;28;19922;-87
2023/10/25 06:39:49;;;;;;;;;;;;;;;5.35;100.00;99556.03;4969648;28;19929;-86
2023/10/25 06:42:22;;;;;;;;;;;;;;;5.35;100.00;99548.72;4991366;28;19922;-87
2023/10/25 06:44:55;;;;;;;;;;;;;;;5.40;100.00;99553.28;4990236;28;19945;-86
2023/10/25 06:47:25;;;;;;;;;;;;;;;5.33;100.00;99556.31;4991291;28;20398;-86
2023/10/25 06:49:54;;;;;;;;;;;;;;;5.37;100.00;99551.97;4994854;28;19930;-86
2023/10/25 06:52:23;;;;;;;;;;;;;;;5.41;100.00;99550.34;4995109;28;19921;-86
2023/10/25 06:54:53;;;;;;;;;;;;;;;5.48;100.00;99550.03;4993339;28;19926;-85
2023/10/25 06:57:26;;;;;;;;;;;;;;;5.47;100.00;99550.31;5000713;28;19929;-86
2023/10/25 06:59:54;;;;;;;;;;;;;;;5.51;100.00;99544.13;4978980;28;19930;-87
2023/10/25 07:02:33;;;;;;;;;;;;;;;5.56;100.00;99543.28;4997509;28;20002;-87
2023/10/25 07:05:05;;;;;;;;;;;;;;;5.57;100.00;99545.72;4994704;28;20400;-89
2023/10/25 07:07:35;;;;;;;;;;;;;;;5.64;100.00;99542.72;4993566;28;19922;-88
2023/10/25 07:10:04;;;;;;;;;;;;;;;5.68;100.00;99543.78;4992328;28;19944;-86
2023/10/25 07:12:37;;;;;;;;;;;;;;;5.71;100.00;99537.03;4992129;28;19944;-89
2023/10/25 07:15:05;;;;;;;;;;;;;;;5.70;100.00;99541.59;4974856;28;19929;-87
2023/10/25 07:17:39;;;;;;;;;;;;;;;5.73;100.00;99551.88;4995375;28;19921;-87
2023/10/25 07:20:12;;;;;;;;;;;;;;;5.75;100.00;99544.28;4992131;28;19925;-87
2023/10/25 07:22:46;;;;;;;;;;;;;;;5.78;100.00;99545.66;4975295;28;19928;-86
2023/10/25 07:25:14;;;;;;;;;;;;;;;5.78;100.00;99541.03;4995082;28;19922;-86
2023/10/25 07:27:42;;;;;;;;;;;;;;;5.85;100.00;99551.56;4990758;28;19921;-87
2023/10/25 07:30:10;;;;;;;;;;;;;;;5.92;100.00;99543.97;4977359;28;19922;-86
2023/10/25 07:32:40;;;;;;;;;;;;;;;5.99;100.00;99548.28;4996013;28;19929;-87
2023/10/25 07:35:08;;;;;;;;;;;;;;;6.06;100.00;99546.09;4989447;28;19929;-85
2023/10/25 07:37:41;;;;;;;;;;;;;;;6.14;100.00;99542.81;4948047;28;19925;-87
2023/10/25 07:40:15;;;;;;;;;;;;;;;6.20;100.00;99544.41;4985765;28;19928;-87
2023/10/25 07:42:43;;;;;;;;;;;;;;;6.24;100.00;99547.34;4960091;28;19941;-84
2023/10/25 07:45:16;;;;;;;;;;;;;;;6.29;100.00;99547.31;4962513;28;19930;-88
2023/10/25 07:47:44;;;;;;;;;;;;;;;6.32;100.00;99551.38;4960246;28;19930;-87
2023/10/25 07:50:17;;;;;;;;;;;;;;;6.40;100.00;99550.78;4964216;28;19936;-86
2023/10/25 07:52:45;;;;;;;;;;;;;;;6.39;100.00;99552.66;4950074;28;20018;-87
2023/10/25 07:55:13;;;;;;;;;;;;;;;6.34;100.00;99550.00;4968919;28;20538;-84
2023/10/25 07:57:43;;;;;;;;;;;;;;;6.26;100.00;99561.41;4969078;28;19930;-85
2023/10/25 08:00:16;;;;;;;;;;;;;;;6.37;100.00;99562.94;4969972;28;19930;-85
2023/10/25 08:02:49;;;;;;;;;;;;;;;6.37;100.00;99562.16;4969466;28;22879;-85
2023/10/25 08:05:17;;;;;;;;;;;;;;;6.41;100.00;99552.41;4969605;28;19929;-87
2023/10/25 08:07:47;;;;;;;;;;;;;;;6.45;100.00;99554.25;4968117;28;19930;-87
2023/10/25 08:10:41;;;;;;;;;;;;;;;6.54;100.00;99542.84;4969285;28;19930;-86
2023/10/25 08:13:13;;;;;;;;;;;;;;;6.60;100.00;99550.66;4943331;28;19930;-87
2023/10/25 08:15:42;;;;;;;;;;;;;;;6.63;100.00;99558.19;4958902;28;19936;-86
2023/10/25 08:18:16;;;;;;;;;;;;;;;6.60;100.00;99550.66;4970532;28;19937;-87
2023/10/25 08:20:46;;;;;;;;;;;;;;;6.72;100.00;99546.78;4972614;28;19937;-87
2023/10/25 08:23:15;;;;;;;;;;;;;;;6.67;100.00;99542.22;4966032;28;19930;-86
2023/10/25 08:25:43;;;;;;;;;;;;;;;6.74;100.00;99550.81;4969975;28;19929;-89
2023/10/25 08:28:12;;;;;;;;;;;;;;;6.76;100.00;99553.25;4966584;28;19952;-84
2023/10/25 08:30:40;;;;;;;;;;;;;;;6.89;100.00;99543.66;4972387;28;19922;-86
2023/10/25 08:33:13;;;;;;;;;;;;;;;6.93;100.00;99544.72;4973047;28;19930;-87
2023/10/25 08:35:41;;;;;;;;;;;;;;;6.98;100.00;99542.78;4946918;28;20361;-85
2023/10/25 08:38:10;;;;;;;;;;;;;;;7.09;100.00;99542.69;4943147;28;20394;-86
2023/10/25 08:40:40;;;;;;;;;;;;;;;7.08;100.00;99547.28;4948766;28;20936;-86
2023/10/25 08:43:08;;;;;;;;;;;;;;;7.11;100.00;99538.63;4957327;28;20513;-86
2023/10/25 08:45:37;;;;;;;;;;;;;;;7.14;100.00;99550.78;4957223;28;20930;-84
2023/10/25 08:48:10;;;;;;;;;;;;;;;7.13;100.00;99544.53;4968166;28;19930;-86
2023/10/25 08:50:39;;;;;;;;;;;;;;;7.12;100.00;99555.66;4947376;28;19965;-83
2023/10/25 08:53:07;;;;;;;;;;;;;;;7.18;100.00;99543.69;4961823;28;20417;-84
2023/10/25 08:55:40;;;;;;;;;;;;;;;7.26;100.00;99543.06;4964040;28;19929;-86
2023/10/25 08:58:15;;;;;;;;;;;;;;;7.30;100.00;99546.81;4947336;28;19929;-84
2023/10/25 09:00:49;;;;;;;;;;;;;;;7.28;100.00;99548.22;4957565;28;19934;-84
2023/10/25 09:03:32;;;;;;;;;;;;;;;7.27;100.00;99560.91;4967285;28;20511;-87
2023/10/25 09:06:06;;;;;;;;;;;;;;;7.38;100.00;99553.50;4955420;28;19929;-88
2023/10/25 09:08:40;;;;;;;;;;;;;;;7.46;100.00;99554.78;4967197;28;20714;-86
2023/10/25 09:11:09;;;;;;;;;;;;;;;7.49;100.00;99552.31;4972063;28;20441;-88
2023/10/25 09:13:42;;;;;;;;;;;;;;;7.54;100.00;99556.06;4950646;28;19929;-86
2023/10/25 09:16:16;;;;;;;;;;;;;;;7.63;100.00;99554.34;4967253;28;19930;-87
2023/10/25 09:18:45;;;;;;;;;;;;;;;7.74;100.00;99555.81;4967297;28;19937;-88
2023/10/25 09:21:13;;;;;;;;;;;;;;;7.73;100.00;99558.81;4965111;28;20279;-87
2023/10/25 09:23:41;;;;;;;;;;;;;;;7.78;100.00;99556.88;4964313;28;19930;-87
2023/10/25 09:26:18;;;;;;;;;;;;;;;7.79;100.00;99557.69;4955534;28;19929;-88
2023/10/25 09:28:46;;;;;;;;;;;;;;;7.95;100.00;99558.28;4969936;28;19930;-88
2023/10/25 09:31:23;;;;;;;;;;;;;;;8.02;100.00;99547.91;4965549;28;19937;-87
2023/10/25 09:33:58;;;;;;;;;;;;;;;8.13;100.00;99551.28;4953329;28;19929;-87
2023/10/25 09:36:30;;;;;;;;;;;;;;;8.28;100.00;99555.72;4947475;28;19925;-87
2023/10/25 09:38:58;;;;;;;;;;;;;;;8.33;100.00;99559.16;4963503;28;19930;-87
2023/10/25 09:41:35;;;;;;;;;;;;;;;8.43;100.00;99550.06;4952578;28;20262;-87
2023/10/25 09:44:08;;;;;;;;;;;;;;;8.37;100.00;99547.72;4968795;28;19930;-88
2023/10/25 09:46:40;;;;;;;;;;;;;;;8.42;100.00;99548.44;4952310;28;19933;-87
2023/10/25 09:49:15;;;;;;;;;;;;;;;8.44;100.00;99545.47;4957145;28;21075;-87
2023/10/25 09:51:59;;;;;;;;;;;;;;;8.46;100.00;99543.28;4966146;28;19930;-87
2023/10/25 09:54:30;;;;;;;;;;;;;;;8.42;100.00;99540.31;4965927;28;19930;-88
2023/10/25 09:56:59;;;;;;;;;;;;;;;8.45;100.00;99538.97;4974574;28;19929;-87
2023/10/25 09:59:28;;;;;;;;;;;;;;;8.47;100.00;99536.78;4963481;28;19922;-87
2023/10/25 10:01:59;;;;;;;;;;;;;;;8.47;100.00;99534.06;4959437;28;19956;-89
2023/10/25 10:04:33;;;;;;;;;;;;;;;8.44;100.00;99532.72;4969492;28;20306;-88
2023/10/25 10:07:07;;;;;;;;;;;;;;;8.48;100.00;99530.25;4970475;28;20463;-88
2023/10/25 10:09:40;;;;;;;;;;;;;;;8.54;100.00;99523.66;4964210;28;19968;-88
2023/10/25 10:12:08;;;;;;;;;;;;;;;8.60;100.00;99527.09;4947126;28;20685;-88
2023/10/25 10:14:41;;;;;;;;;;;;;;;8.67;100.00;99514.78;4966156;28;20750;-88
2023/10/25 10:17:15;;;;;;;;;;;;;;;8.67;100.00;99517.47;4969915;28;20863;-90
2023/10/25 10:19:47;;;;;;;;;;;;;;;8.71;100.00;99519.59;4959591;28;19929;-88
2023/10/25 10:22:16;;;;;;;;;;;;;;;8.68;100.00;99516.34;4958865;28;19930;-88
2023/10/25 10:24:45;;;;;;;;;;;;;;;8.66;100.00;99513.16;4967348;28;19957;-87
2023/10/25 10:27:15;;;;;;;;;;;;;;;8.69;100.00;99519.91;4967106;28;19934;-88
2023/10/25 10:29:44;;;;;;;;;;;;;;;8.73;100.00;99511.94;4961873;28;19933;-86
2023/10/25 10:32:18;;;;;;;;;;;;;;;8.88;100.00;99503.59;4962271;28;20701;-87
2023/10/25 10:34:56;;;;;;;;;;;;;;;8.93;100.00;99511.63;4964201;28;19929;-88
2023/10/25 10:37:25;;;;;;;;;;;;;;;9.09;100.00;99505.94;4924673;28;19930;-88
2023/10/25 10:40:14;;;;;;;;;;;;;;;9.17;100.00;99511.47;4960176;28;20374;-88
2023/10/25 10:42:43;;;;;;;;;;;;;;;9.31;100.00;99499.84;4956897;28;19929;-88
2023/10/25 10:45:12;;;;;;;;;;;;;;;9.38;100.00;99505.69;4967477;28;19929;-88
2023/10/25 10:47:42;;;;;;;;;;;;;;;9.40;100.00;99498.03;4960427;28;19954;-88
2023/10/25 10:50:11;;;;;;;;;;;;;;;9.52;100.00;99492.91;4964322;28;19930;-89
2023/10/25 10:52:40;;;;;;;;;;;;;;;9.71;100.00;99492.00;4965013;28;19929;-88
2023/10/25 10:55:08;;;;;;;;;;;;;;;9.67;100.00;99486.34;4967743;28;19937;-88
2023/10/25 10:57:37;;;;;;;;;;;;;;;9.68;100.00;99490.69;4971061;28;20375;-87
2023/10/25 11:00:11;;;;;;;;;;;;;;;9.63;100.00;99479.13;4961519;28;19930;-89
2023/10/25 11:02:39;;;;;;;;;;;;;;;9.51;100.00;99475.03;4976208;28;19937;-85
2023/10/25 11:05:09;;;;;;;;;;;;;;;9.59;100.00;99473.47;4949325;28;19926;-86
2023/10/25 11:07:37;;;;;;;;;;;;;;;9.52;100.00;99468.44;4966585;28;19937;-89
2023/10/25 11:10:06;;;;;;;;;;;;;;;9.59;100.00;99465.34;4962922;28;19929;-88
2023/10/25 11:12:34;;;;;;;;;;;;;;;9.86;100.00;99461.78;4950184;28;19953;-88
2023/10/25 11:15:03;;;;;;;;;;;;;;;9.80;100.00;99457.56;4966497;28;19930;-88
2023/10/25 11:17:31;;;;;;;;;;;;;;;9.79;100.00;99457.88;4959958;28;19930;-89
2023/10/25 11:20:00;;;;;;;;;;;;;;;9.80;100.00;99454.84;4957946;28;19941;-87
2023/10/25 11:22:36;;;;;;;;;;;;;;;9.90;100.00;99461.16;4969209;28;19925;-87
2023/10/25 11:25:08;;;;;;;;;;;;;;;9.86;100.00;99452.84;4965268;28;19937;-87
2023/10/25 11:27:37;;;;;;;;;;;;;;;9.83;100.00;99456.16;4970929;28;19937;-87
2023/10/25 11:30:06;;;;;;;;;;;;;;;9.87;100.00;99446.28;4959788;28;19937;-87
2023/10/25 11:32:42;;;;;;;;;;;;;;;9.90;100.00;99440.22;4960086;28;19922;-86
2023/10/25 11:35:22;;;;;;;;;;;;;;;10.00;100.00;99450.09;4965346;28;19934;-87
2023/10/25 11:37:53;;;;;;;;;;;;;;;10.10;100.00;99444.41;4928732;28;19930;-88
2023/10/25 11:40:34;;;;;;;;;;;;;;;10.14;100.00;99436.47;4955838;28;19929;-87
2023/10/25 11:43:07;;;;;;;;;;;;;;;10.16;100.00;99436.94;4966470;28;20367;-86
2023/10/25 11:45:37;;;;;;;;;;;;;;;10.23;100.00;99440.03;4968157;28;19934;-87
2023/10/25 11:48:05;;;;;;;;;;;;;;;10.32;100.00;99435.47;4969948;28;19937;-86
2023/10/25 11:50:33;;;;;;;;;;;;;;;10.33;100.00;99442.53;4960789;28;19949;-87
2023/10/25 11:53:11;;;;;;;;;;;;;;;10.38;100.00;99444.34;4975903;28;19922;-87
2023/10/25 11:55:39;;;;;;;;;;;;;;;10.42;100.00;99436.38;4974452;28;20170;-86
2023/10/25 11:58:07;;;;;;;;;;;;;;;10.40;100.00;99442.13;4970752;28;20877;-86
2023/10/25 12:00:35;;;;;;;;;;;;;;;10.48;100.00;99432.41;4971870;28;19929;-86
2023/10/25 12:03:03;;;;;;;;;;;;;;;10.44;100.00;99436.84;4968004;28;19937;-85
2023/10/25 12:05:31;;;;;;;;;;;;;;;10.49;100.00;99434.00;4974382;28;19930;-86
2023/10/25 12:08:04;;;;;;;;;;;;;;;10.50;100.00;99430.97;4972864;28;19930;-85
2023/10/25 12:10:34;;;;;;;;;;;;;;;10.51;100.00;99423.66;4969576;28;20279;-84
2023/10/25 12:13:07;;;;;;;;;;;;;;;10.51;100.00;99427.16;4971439;28;19929;-85
2023/10/25 12:15:34;;;;;;;;;;;;;;;10.54;100.00;99418.38;4973735;28;19930;-85
2023/10/25 12:18:02;;;;;;;;;;;;;;;10.60;100.00;99418.25;4955750;28;19929;-86
2023/10/25 12:20:35;;;;;;;;;;;;;;;10.61;100.00;99415.22;4975156;28;19952;-85
2023/10/25 12:23:08;;;;;;;;;;;;;;;10.70;100.00;99407.09;4970196;28;19936;-85
2023/10/25 12:25:43;;;;;;;;;;;;;;;10.75;100.00;99411.63;4971144;28;19930;-87
2023/10/25 12:28:16;;;;;;;;;;;;;;;10.78;100.00;99409.06;4946474;28;19929;-85
2023/10/25 12:30:48;;;;;;;;;;;;;;;10.87;100.00;99418.06;4967849;28;19930;-86
2023/10/25 12:33:16;;;;;;;;;;;;;;;11.03;100.00;99395.88;4967206;28;19930;-87
2023/10/25 12:35:50;;;;;;;;;;;;;;;11.03;100.00;99406.78;4972413;28;19930;-86
2023/10/25 12:38:18;;;;;;;;;;;;;;;10.94;100.00;99401.31;4945691;28;19925;-85
2023/10/25 12:40:52;;;;;;;;;;;;;;;10.87;100.00;99396.31;4968077;28;19929;-87
2023/10/25 12:43:20;;;;;;;;;;;;;;;10.78;100.00;99402.81;4950579;28;20849;-87
2023/10/25 12:45:54;;;;;;;;;;;;;;;10.72;100.00;99389.34;4971076;28;19933;-88
2023/10/25 12:48:27;;;;;;;;;;;;;;;10.55;100.00;99390.06;4979275;28;19929;-86
2023/10/25 12:50:55;;;;;;;;;;;;;;;10.45;100.00;99390.31;4954228;28;19940;-87
2023/10/25 12:53:23;;;;;;;;;;;;;;;10.41;100.00;99386.59;4969755;28;19937;-86
2023/10/25 12:55:52;;;;;;;;;;;;;;;10.38;100.00;99376.34;4974644;28;21241;-85
2023/10/25 12:58:21;;;;;;;;;;;;;;;10.33;100.00;99381.88;4978898;28;20713;-86
2023/10/25 13:00:49;;;;;;;;;;;;;;;10.38;100.00;99376.34;4959536;28;19930;-88
2023/10/25 13:03:17;;;;;;;;;;;;;;;10.43;100.00;99362.63;4964255;28;19929;-87